sensor_id;sensor_type;location;lat;lon;timestamp;pressure;altitude;pressure_sealevel;temperature;humidity
35892;BME280;21993;42.672;23.296;2023-02-13T00:01:52;96446.59;;;3.03;68.40
35892;BME280;21993;42.672;23.296;2023-02-13T00:04:17;96441.50;;;3.00;68.12
35892;BME280;21993;42.672;23.296;2023-02-13T00:06:43;96443.41;;;2.95;69.00
35892;BME280;21993;42.672;23.296;2023-02-13T00:09:08;96446.00;;;2.95;68.78
35892;BME280;21993;42.672;23.296;2023-02-13T00:11:35;96443.97;;;3.04;68.67
35892;BME280;21993;42.672;23.296;2023-02-13T00:14:01;96449.16;;;3.04;68.54
35892;BME280;21993;42.672;23.296;2023-02-13T00:16:26;96437.94;;;3.04;68.25
35892;BME280;21993;42.672;23.296;2023-02-13T00:18:52;96449.38;;;2.97;68.62
35892;BME280;21993;42.672;23.296;2023-02-13T00:21:17;96449.56;;;2.91;69.01
35892;BME280;21993;42.672;23.296;2023-02-13T00:23:43;96450.91;;;3.02;68.93
35892;BME280;21993;42.672;23.296;2023-02-13T00:26:12;96456.09;;;3.04;68.86
35892;BME280;21993;42.672;23.296;2023-02-13T00:28:38;96455.41;;;2.97;68.80
35892;BME280;21993;42.672;23.296;2023-02-13T00:31:10;96453.50;;;3.02;68.75
35892;BME280;21993;42.672;23.296;2023-02-13T00:33:36;96457.78;;;3.05;68.75
35892;BME280;21993;42.672;23.296;2023-02-13T00:36:13;96455.13;;;3.06;68.57
35892;BME280;21993;42.672;23.296;2023-02-13T00:38:40;96462.06;;;3.06;68.56
35892;BME280;21993;42.672;23.296;2023-02-13T00:41:06;96460.38;;;3.05;68.71
35892;BME280;21993;42.672;23.296;2023-02-13T00:43:32;96459.53;;;3.04;68.82
35892;BME280;21993;42.672;23.296;2023-02-13T00:45:58;96462.00;;;3.07;68.47
35892;BME280;21993;42.672;23.296;2023-02-13T00:48:25;96464.66;;;3.06;68.28
35892;BME280;21993;42.672;23.296;2023-02-13T00:50:50;96458.69;;;3.02;68.77
35892;BME280;21993;42.672;23.296;2023-02-13T00:53:17;96455.41;;;2.97;69.19
35892;BME280;21993;42.672;23.296;2023-02-13T00:55:43;96459.53;;;3.04;68.27
35892;BME280;21993;42.672;23.296;2023-02-13T00:58:08;96470.66;;;3.08;68.51
35892;BME280;21993;42.672;23.296;2023-02-13T01:00:34;96466.63;;;2.98;68.55
35892;BME280;21993;42.672;23.296;2023-02-13T01:02:59;96470.81;;;3.02;68.56
35892;BME280;21993;42.672;23.296;2023-02-13T01:05:25;96472.44;;;3.06;68.65
35892;BME280;21993;42.672;23.296;2023-02-13T01:07:52;96468.22;;;3.02;68.35
35892;BME280;21993;42.672;23.296;2023-02-13T01:10:17;96471.59;;;3.05;68.57
35892;BME280;21993;42.672;23.296;2023-02-13T01:12:43;96477.56;;;3.07;68.92
35892;BME280;21993;42.672;23.296;2023-02-13T01:15:08;96470.81;;;3.03;68.52
35892;BME280;21993;42.672;23.296;2023-02-13T01:17:34;96462.72;;;3.13;68.29
35892;BME280;21993;42.672;23.296;2023-02-13T01:19:59;96471.50;;;3.08;68.52
35892;BME280;21993;42.672;23.296;2023-02-13T01:22:24;96472.63;;;3.00;69.46
35892;BME280;21993;42.672;23.296;2023-02-13T01:24:50;96473.41;;;3.03;68.97
35892;BME280;21993;42.672;23.296;2023-02-13T01:27:15;96472.78;;;2.95;69.49
35892;BME280;21993;42.672;23.296;2023-02-13T01:29:41;96474.38;;;2.99;69.53
35892;BME280;21993;42.672;23.296;2023-02-13T01:32:06;96476.63;;;3.10;68.99
35892;BME280;21993;42.672;23.296;2023-02-13T01:34:32;96480.34;;;3.01;68.99
35892;BME280;21993;42.672;23.296;2023-02-13T01:36:58;96476.00;;;3.03;69.26
35892;BME280;21993;42.672;23.296;2023-02-13T01:39:24;96481.69;;;3.15;69.37
35892;BME280;21993;42.672;23.296;2023-02-13T01:41:50;96480.28;;;3.04;69.34
35892;BME280;21993;42.672;23.296;2023-02-13T01:47:09;96481.97;;;3.05;69.35
35892;BME280;21993;42.672;23.296;2023-02-13T01:49:35;96478.31;;;3.11;69.51
35892;BME280;21993;42.672;23.296;2023-02-13T01:52:01;96481.03;;;3.08;69.82
35892;BME280;21993;42.672;23.296;2023-02-13T01:54:29;96478.97;;;3.18;68.97
35892;BME280;21993;42.672;23.296;2023-02-13T01:57:03;96482.47;;;3.17;69.69
35892;BME280;21993;42.672;23.296;2023-02-13T01:59:43;96493.66;;;3.19;68.92
35892;BME280;21993;42.672;23.296;2023-02-13T02:02:11;96489.47;;;3.15;69.69
35892;BME280;21993;42.672;23.296;2023-02-13T02:04:39;96489.53;;;3.13;69.68
35892;BME280;21993;42.672;23.296;2023-02-13T02:07:09;96486.53;;;3.25;69.22
35892;BME280;21993;42.672;23.296;2023-02-13T02:09:41;96480.69;;;3.19;69.46
35892;BME280;21993;42.672;23.296;2023-02-13T02:12:20;96486.59;;;3.24;69.55
35892;BME280;21993;42.672;23.296;2023-02-13T02:14:48;96477.78;;;3.28;69.77
35892;BME280;21993;42.672;23.296;2023-02-13T02:17:15;96482.72;;;3.37;68.83
35892;BME280;21993;42.672;23.296;2023-02-13T02:25:21;96484.94;;;3.21;69.79
35892;BME280;21993;42.672;23.296;2023-02-13T02:28:26;96485.84;;;3.20;69.68
35892;BME280;21993;42.672;23.296;2023-02-13T02:31:27;96485.75;;;3.23;69.41
35892;BME280;21993;42.672;23.296;2023-02-13T02:34:23;96472.78;;;3.23;69.57
35892;BME280;21993;42.672;23.296;2023-02-13T02:47:53;96493.06;;;3.38;68.56
35892;BME280;21993;42.672;23.296;2023-02-13T02:51:02;96498.31;;;3.35;68.44
35892;BME280;21993;42.672;23.296;2023-02-13T02:53:42;96504.56;;;3.30;68.63
35892;BME280;21993;42.672;23.296;2023-02-13T02:56:11;96497.88;;;3.23;68.90
35892;BME280;21993;42.672;23.296;2023-02-13T02:59:00;96503.81;;;3.26;69.17
35892;BME280;21993;42.672;23.296;2023-02-13T03:01:47;96509.03;;;3.25;68.72
35892;BME280;21993;42.672;23.296;2023-02-13T03:04:53;96520.19;;;3.28;69.20
35892;BME280;21993;42.672;23.296;2023-02-13T03:07:39;96507.34;;;3.24;68.71
35892;BME280;21993;42.672;23.296;2023-02-13T03:10:08;96506.50;;;3.23;68.76
35892;BME280;21993;42.672;23.296;2023-02-13T03:12:56;96497.75;;;3.26;68.57
35892;BME280;21993;42.672;23.296;2023-02-13T03:15:44;96502.91;;;3.27;68.03
35892;BME280;21993;42.672;23.296;2023-02-13T03:18:31;96511.78;;;3.20;68.76
35892;BME280;21993;42.672;23.296;2023-02-13T03:21:21;96505.84;;;3.17;68.70
35892;BME280;21993;42.672;23.296;2023-02-13T03:24:27;96510.13;;;3.18;68.44
35892;BME280;21993;42.672;23.296;2023-02-13T03:27:17;96514.06;;;3.01;69.31
35892;BME280;21993;42.672;23.296;2023-02-13T03:30:18;96505.31;;;3.05;69.36
35892;BME280;21993;42.672;23.296;2023-02-13T03:38:34;96517.00;;;3.19;68.35
35892;BME280;21993;42.672;23.296;2023-02-13T03:41:06;96511.13;;;3.14;68.16
35892;BME280;21993;42.672;23.296;2023-02-13T03:46:16;96509.03;;;2.97;68.80
35892;BME280;21993;42.672;23.296;2023-02-13T03:48:44;96505.66;;;2.95;69.05
35892;BME280;21993;42.672;23.296;2023-02-13T03:54:06;96503.75;;;3.00;68.80
35892;BME280;21993;42.672;23.296;2023-02-13T03:56:34;96510.41;;;3.08;68.53
35892;BME280;21993;42.672;23.296;2023-02-13T03:59:27;96510.06;;;3.19;68.05
35892;BME280;21993;42.672;23.296;2023-02-13T04:04:32;96505.03;;;3.15;68.14
35892;BME280;21993;42.672;23.296;2023-02-13T04:07:04;96499.84;;;3.15;67.91
35892;BME280;21993;42.672;23.296;2023-02-13T04:09:34;96503.25;;;3.17;68.41
35892;BME280;21993;42.672;23.296;2023-02-13T04:14:53;96510.97;;;3.18;68.79
35892;BME280;21993;42.672;23.296;2023-02-13T04:17:35;96512.88;;;3.13;68.15
35892;BME280;21993;42.672;23.296;2023-02-13T04:20:04;96511.97;;;3.14;68.05
35892;BME280;21993;42.672;23.296;2023-02-13T04:22:31;96512.53;;;3.24;67.54
35892;BME280;21993;42.672;23.296;2023-02-13T04:24:56;96506.72;;;3.16;68.17
35892;BME280;21993;42.672;23.296;2023-02-13T04:27:24;96511.13;;;3.14;68.10
35892;BME280;21993;42.672;23.296;2023-02-13T04:29:51;96512.94;;;3.10;68.49
35892;BME280;21993;42.672;23.296;2023-02-13T04:32:16;96513.84;;;3.09;68.79
35892;BME280;21993;42.672;23.296;2023-02-13T04:34:41;96509.31;;;3.16;68.34
35892;BME280;21993;42.672;23.296;2023-02-13T04:37:07;96513.63;;;3.17;68.04
35892;BME280;21993;42.672;23.296;2023-02-13T04:39:33;96511.69;;;3.23;67.61
35892;BME280;21993;42.672;23.296;2023-02-13T04:41:58;96500.81;;;3.10;67.75
35892;BME280;21993;42.672;23.296;2023-02-13T04:44:24;96500.81;;;3.12;68.47
35892;BME280;21993;42.672;23.296;2023-02-13T04:46:49;96510.06;;;3.19;68.31
35892;BME280;21993;42.672;23.296;2023-02-13T04:49:14;96507.28;;;3.25;67.62
35892;BME280;21993;42.672;23.296;2023-02-13T04:51:40;96510.28;;;3.13;68.22
35892;BME280;21993;42.672;23.296;2023-02-13T04:54:05;96506.63;;;3.19;68.35
35892;BME280;21993;42.672;23.296;2023-02-13T04:56:31;96519.53;;;3.22;67.56
35892;BME280;21993;42.672;23.296;2023-02-13T04:58:56;96518.28;;;3.33;67.30
35892;BME280;21993;42.672;23.296;2023-02-13T05:01:21;96520.09;;;3.31;67.65
35892;BME280;21993;42.672;23.296;2023-02-13T05:03:47;96529.47;;;3.35;66.92
35892;BME280;21993;42.672;23.296;2023-02-13T05:06:13;96537.22;;;3.37;66.76
35892;BME280;21993;42.672;23.296;2023-02-13T05:08:38;96526.19;;;3.30;66.98
35892;BME280;21993;42.672;23.296;2023-02-13T05:11:04;96536.50;;;3.32;66.94
35892;BME280;21993;42.672;23.296;2023-02-13T05:13:30;96539.84;;;3.35;66.95
35892;BME280;21993;42.672;23.296;2023-02-13T05:15:55;96536.47;;;3.33;66.95
35892;BME280;21993;42.672;23.296;2023-02-13T05:18:21;96530.31;;;3.36;66.26
35892;BME280;21993;42.672;23.296;2023-02-13T05:20:46;96536.41;;;3.35;67.25
35892;BME280;21993;42.672;23.296;2023-02-13T05:23:31;96537.84;;;3.45;66.49
35892;BME280;21993;42.672;23.296;2023-02-13T05:25:57;96543.97;;;3.43;67.52
35892;BME280;21993;42.672;23.296;2023-02-13T05:28:22;96543.44;;;3.31;66.67
35892;BME280;21993;42.672;23.296;2023-02-13T05:31:06;96543.91;;;3.44;67.06
35892;BME280;21993;42.672;23.296;2023-02-13T05:33:32;96546.66;;;3.39;66.79
35892;BME280;21993;42.672;23.296;2023-02-13T05:35:57;96545.25;;;3.28;67.75
35892;BME280;21993;42.672;23.296;2023-02-13T05:38:23;96542.53;;;3.32;66.85
35892;BME280;21993;42.672;23.296;2023-02-13T05:40:49;96542.53;;;3.32;66.76
35892;BME280;21993;42.672;23.296;2023-02-13T05:43:14;96556.44;;;3.31;66.75
35892;BME280;21993;42.672;23.296;2023-02-13T05:45:40;96551.75;;;3.43;66.13
35892;BME280;21993;42.672;23.296;2023-02-13T05:48:05;96551.78;;;3.41;66.20
35892;BME280;21993;42.672;23.296;2023-02-13T05:50:30;96554.72;;;3.30;66.63
35892;BME280;21993;42.672;23.296;2023-02-13T05:52:56;96558.22;;;3.29;66.32
35892;BME280;21993;42.672;23.296;2023-02-13T05:55:21;96552.03;;;3.33;66.48
35892;BME280;21993;42.672;23.296;2023-02-13T05:57:46;96554.69;;;3.32;66.46
35892;BME280;21993;42.672;23.296;2023-02-13T06:00:12;96561.56;;;3.33;67.03
35892;BME280;21993;42.672;23.296;2023-02-13T06:02:38;96563.13;;;3.38;66.57
35892;BME280;21993;42.672;23.296;2023-02-13T06:05:04;96564.59;;;3.47;66.43
35892;BME280;21993;42.672;23.296;2023-02-13T06:07:29;96562.22;;;3.39;66.87
35892;BME280;21993;42.672;23.296;2023-02-13T06:09:54;96570.88;;;3.40;66.77
35892;BME280;21993;42.672;23.296;2023-02-13T06:12:22;96567.38;;;3.41;66.46
35892;BME280;21993;42.672;23.296;2023-02-13T06:14:47;96574.38;;;3.39;66.32
35892;BME280;21993;42.672;23.296;2023-02-13T06:17:13;96569.25;;;3.36;67.24
35892;BME280;21993;42.672;23.296;2023-02-13T06:19:38;96572.75;;;3.35;66.80
35892;BME280;21993;42.672;23.296;2023-02-13T06:22:03;96579.50;;;3.41;66.44
35892;BME280;21993;42.672;23.296;2023-02-13T06:24:29;96581.03;;;3.48;66.29
35892;BME280;21993;42.672;23.296;2023-02-13T06:26:54;96573.13;;;3.51;66.65
35892;BME280;21993;42.672;23.296;2023-02-13T06:29:19;96571.94;;;3.61;65.36
35892;BME280;21993;42.672;23.296;2023-02-13T06:31:45;96586.03;;;3.54;66.30
35892;BME280;21993;42.672;23.296;2023-02-13T06:34:10;96586.84;;;3.56;66.26
35892;BME280;21993;42.672;23.296;2023-02-13T06:36:36;96586.91;;;3.53;65.99
35892;BME280;21993;42.672;23.296;2023-02-13T06:39:02;96585.03;;;3.58;65.82
35892;BME280;21993;42.672;23.296;2023-02-13T06:41:28;96582.44;;;3.58;65.47
35892;BME280;21993;42.672;23.296;2023-02-13T06:43:53;96586.78;;;3.57;65.53
35892;BME280;21993;42.672;23.296;2023-02-13T06:46:19;96585.13;;;3.55;65.85
35892;BME280;21993;42.672;23.296;2023-02-13T06:48:44;96584.91;;;3.62;65.75
35892;BME280;21993;42.672;23.296;2023-02-13T06:51:10;96592.72;;;3.61;65.94
35892;BME280;21993;42.672;23.296;2023-02-13T06:53:35;96589.88;;;3.68;65.14
35892;BME280;21993;42.672;23.296;2023-02-13T06:56:03;96587.28;;;3.68;65.63
35892;BME280;21993;42.672;23.296;2023-02-13T06:58:30;96585.75;;;3.63;65.45
35892;BME280;21993;42.672;23.296;2023-02-13T07:00:55;96587.34;;;3.67;65.64
35892;BME280;21993;42.672;23.296;2023-02-13T07:03:21;96583.72;;;3.73;64.98
35892;BME280;21993;42.672;23.296;2023-02-13T07:05:46;96578.34;;;3.77;65.70
35892;BME280;21993;42.672;23.296;2023-02-13T07:08:12;96581.78;;;3.79;65.33
35892;BME280;21993;42.672;23.296;2023-02-13T07:10:39;96576.59;;;3.78;64.81
35892;BME280;21993;42.672;23.296;2023-02-13T07:13:05;96568.56;;;3.85;65.36
35892;BME280;21993;42.672;23.296;2023-02-13T07:15:32;96574.47;;;3.64;65.71
35892;BME280;21993;42.672;23.296;2023-02-13T07:17:58;96578.41;;;3.76;64.97
35892;BME280;21993;42.672;23.296;2023-02-13T07:20:25;96577.97;;;3.61;65.70
35892;BME280;21993;42.672;23.296;2023-02-13T07:22:51;96590.59;;;3.74;65.86
35892;BME280;21993;42.672;23.296;2023-02-13T07:25:17;96593.09;;;3.77;65.23
35892;BME280;21993;42.672;23.296;2023-02-13T07:27:42;96586.69;;;3.88;64.56
35892;BME280;21993;42.672;23.296;2023-02-13T07:30:08;96592.63;;;3.92;64.91
35892;BME280;21993;42.672;23.296;2023-02-13T07:32:33;96596.47;;;4.07;63.88
35892;BME280;21993;42.672;23.296;2023-02-13T07:34:59;96590.88;;;3.92;65.21
35892;BME280;21993;42.672;23.296;2023-02-13T07:37:26;96597.75;;;3.93;64.45
35892;BME280;21993;42.672;23.296;2023-02-13T07:39:52;96578.47;;;4.01;64.31
35892;BME280;21993;42.672;23.296;2023-02-13T07:42:17;96587.72;;;4.09;64.69
35892;BME280;21993;42.672;23.296;2023-02-13T07:44:43;96589.28;;;4.15;64.16
35892;BME280;21993;42.672;23.296;2023-02-13T07:47:08;96596.88;;;4.21;63.62
35892;BME280;21993;42.672;23.296;2023-02-13T07:49:34;96582.31;;;4.15;64.02
35892;BME280;21993;42.672;23.296;2023-02-13T07:52:01;96586.75;;;4.12;64.39
35892;BME280;21993;42.672;23.296;2023-02-13T07:54:26;96585.91;;;4.11;63.98
35892;BME280;21993;42.672;23.296;2023-02-13T07:56:52;96583.53;;;4.05;63.70
35892;BME280;21993;42.672;23.296;2023-02-13T07:59:17;96583.28;;;4.13;64.56
35892;BME280;21993;42.672;23.296;2023-02-13T08:01:43;96588.38;;;4.16;63.06
35892;BME280;21993;42.672;23.296;2023-02-13T08:04:08;96589.34;;;4.13;63.49
35892;BME280;21993;42.672;23.296;2023-02-13T08:06:33;96590.78;;;4.22;64.01
35892;BME280;21993;42.672;23.296;2023-02-13T08:08:59;96593.56;;;4.16;63.33
35892;BME280;21993;42.672;23.296;2023-02-13T08:11:42;96591.94;;;4.13;63.67
35892;BME280;21993;42.672;23.296;2023-02-13T08:14:24;96588.97;;;4.24;63.04
35892;BME280;21993;42.672;23.296;2023-02-13T08:16:51;96586.81;;;4.10;63.10
35892;BME280;21993;42.672;23.296;2023-02-13T08:19:17;96579.38;;;4.26;62.96
35892;BME280;21993;42.672;23.296;2023-02-13T08:21:43;96574.66;;;4.12;63.20
35892;BME280;21993;42.672;23.296;2023-02-13T08:24:09;96579.56;;;4.20;63.00
35892;BME280;21993;42.672;23.296;2023-02-13T08:26:34;96587.88;;;4.31;62.49
35892;BME280;21993;42.672;23.296;2023-02-13T08:29:00;96587.88;;;4.31;63.31
35892;BME280;21993;42.672;23.296;2023-02-13T08:31:26;96588.22;;;4.45;62.75
35892;BME280;21993;42.672;23.296;2023-02-13T08:33:51;96585.56;;;4.48;63.41
35892;BME280;21993;42.672;23.296;2023-02-13T08:36:17;96583.00;;;4.47;62.92
35892;BME280;21993;42.672;23.296;2023-02-13T08:38:45;96581.91;;;4.54;62.47
35892;BME280;21993;42.672;23.296;2023-02-13T08:41:10;96584.97;;;4.65;62.39
35892;BME280;21993;42.672;23.296;2023-02-13T08:43:36;96588.47;;;4.64;62.01
35892;BME280;21993;42.672;23.296;2023-02-13T08:46:01;96582.63;;;4.58;62.90
35892;BME280;21993;42.672;23.296;2023-02-13T08:48:27;96580.44;;;4.70;61.76
35892;BME280;21993;42.672;23.296;2023-02-13T08:50:53;96595.03;;;4.74;61.58
35892;BME280;21993;42.672;23.296;2023-02-13T08:53:19;96591.38;;;4.80;62.54
35892;BME280;21993;42.672;23.296;2023-02-13T08:55:54;96588.78;;;4.80;62.73
35892;BME280;21993;42.672;23.296;2023-02-13T08:58:20;96586.47;;;4.72;62.64
35892;BME280;21993;42.672;23.296;2023-02-13T09:00:46;96589.00;;;4.74;62.22
35892;BME280;21993;42.672;23.296;2023-02-13T09:03:12;96586.53;;;4.69;62.47
35892;BME280;21993;42.672;23.296;2023-02-13T09:05:37;96593.03;;;4.83;62.15
35892;BME280;21993;42.672;23.296;2023-02-13T09:08:03;96579.44;;;4.74;63.00
35892;BME280;21993;42.672;23.296;2023-02-13T09:10:30;96583.59;;;4.80;61.86
35892;BME280;21993;42.672;23.296;2023-02-13T09:12:55;96586.66;;;4.91;61.64
35892;BME280;21993;42.672;23.296;2023-02-13T09:15:21;96591.78;;;4.93;62.16
35892;BME280;21993;42.672;23.296;2023-02-13T09:17:46;96587.34;;;4.96;61.24
35892;BME280;21993;42.672;23.296;2023-02-13T09:20:12;96589.50;;;4.84;62.34
35892;BME280;21993;42.672;23.296;2023-02-13T09:22:39;96575.13;;;4.98;61.11
35892;BME280;21993;42.672;23.296;2023-02-13T09:25:05;96583.22;;;5.14;60.74
35892;BME280;21993;42.672;23.296;2023-02-13T09:27:31;96574.00;;;5.05;61.73
35892;BME280;21993;42.672;23.296;2023-02-13T09:29:58;96584.69;;;5.21;61.74
35892;BME280;21993;42.672;23.296;2023-02-13T09:32:23;96572.97;;;5.09;61.18
35892;BME280;21993;42.672;23.296;2023-02-13T09:34:49;96574.00;;;5.05;60.57
35892;BME280;21993;42.672;23.296;2023-02-13T09:37:14;96575.28;;;5.17;60.55
35892;BME280;21993;42.672;23.296;2023-02-13T09:39:40;96567.97;;;5.27;59.83
35892;BME280;21993;42.672;23.296;2023-02-13T09:42:33;96565.94;;;5.35;60.49
35892;BME280;21993;42.672;23.296;2023-02-13T09:45:00;96555.50;;;5.35;60.92
35892;BME280;21993;42.672;23.296;2023-02-13T09:50:03;96557.88;;;5.63;60.24
35892;BME280;21993;42.672;23.296;2023-02-13T09:52:34;96549.88;;;5.91;59.91
35892;BME280;21993;42.672;23.296;2023-02-13T09:55:01;96555.72;;;5.96;59.94
35892;BME280;21993;42.672;23.296;2023-02-13T09:57:31;96544.69;;;6.11;59.29
35892;BME280;21993;42.672;23.296;2023-02-13T10:00:21;96548.03;;;6.35;58.34
35892;BME280;21993;42.672;23.296;2023-02-13T10:03:27;96536.41;;;6.63;57.07
35892;BME280;21993;42.672;23.296;2023-02-13T10:06:05;96526.88;;;6.82;56.00
35892;BME280;21993;42.672;23.296;2023-02-13T10:17:35;96508.91;;;8.05;53.07
35892;BME280;21993;42.672;23.296;2023-02-13T10:22:53;96503.47;;;8.27;52.35
35892;BME280;21993;42.672;23.296;2023-02-13T10:25:24;96497.69;;;8.55;52.18
35892;BME280;21993;42.672;23.296;2023-02-13T10:28:11;96480.78;;;8.78;51.75
35892;BME280;21993;42.672;23.296;2023-02-13T10:31:17;96476.69;;;9.05;49.56
35892;BME280;21993;42.672;23.296;2023-02-13T10:33:52;96479.94;;;9.26;49.99
35892;BME280;21993;42.672;23.296;2023-02-13T10:36:26;96470.72;;;9.50;48.67
35892;BME280;21993;42.672;23.296;2023-02-13T10:39:04;96473.56;;;9.77;48.20
35892;BME280;21993;42.672;23.296;2023-02-13T10:42:11;96467.66;;;10.04;47.57
35892;BME280;21993;42.672;23.296;2023-02-13T10:44:57;96459.44;;;10.10;47.81
35892;BME280;21993;42.672;23.296;2023-02-13T10:58:21;96430.22;;;11.30;44.79
35892;BME280;21993;42.672;23.296;2023-02-13T11:01:00;96432.13;;;11.55;44.05
35892;BME280;21993;42.672;23.296;2023-02-13T11:03:29;96431.16;;;11.70;43.43
35892;BME280;21993;42.672;23.296;2023-02-13T11:05:56;96427.34;;;11.74;42.70
35892;BME280;21993;42.672;23.296;2023-02-13T11:08:31;96426.50;;;11.88;43.08
35892;BME280;21993;42.672;23.296;2023-02-13T11:10:57;96416.19;;;12.10;42.24
35892;BME280;21993;42.672;23.296;2023-02-13T11:13:25;96419.81;;;12.35;42.03
35892;BME280;21993;42.672;23.296;2023-02-13T11:16:06;96422.38;;;12.62;41.70
35892;BME280;21993;42.672;23.296;2023-02-13T11:18:35;96416.13;;;12.76;41.27
35892;BME280;21993;42.672;23.296;2023-02-13T11:28:21;96384.69;;;12.85;40.26
35892;BME280;21993;42.672;23.296;2023-02-13T11:30:47;96381.34;;;12.96;40.21
35892;BME280;21993;42.672;23.296;2023-02-13T11:35:41;96370.41;;;13.26;39.42
35892;BME280;21993;42.672;23.296;2023-02-13T11:38:27;96368.22;;;13.44;38.80
35892;BME280;21993;42.672;23.296;2023-02-13T11:43:32;96356.44;;;13.96;37.93
35892;BME280;21993;42.672;23.296;2023-02-13T11:46:29;96348.56;;;14.18;37.65
35892;BME280;21993;42.672;23.296;2023-02-13T11:49:01;96341.84;;;14.25;37.31
35892;BME280;21993;42.672;23.296;2023-02-13T11:51:39;96337.03;;;14.08;37.16
35892;BME280;21993;42.672;23.296;2023-02-13T11:54:06;96333.81;;;14.16;37.00
35892;BME280;21993;42.672;23.296;2023-02-13T11:56:55;96325.28;;;14.34;36.82
35892;BME280;21993;42.672;23.296;2023-02-13T11:59:23;96318.84;;;14.50;36.91
35892;BME280;21993;42.672;23.296;2023-02-13T12:02:16;96311.66;;;14.63;36.48
35892;BME280;21993;42.672;23.296;2023-02-13T12:04:42;96307.56;;;14.81;35.71
35892;BME280;21993;42.672;23.296;2023-02-13T12:09:40;96306.94;;;14.89;35.08
35892;BME280;21993;42.672;23.296;2023-02-13T12:12:06;96307.16;;;14.86;34.83
35892;BME280;21993;42.672;23.296;2023-02-13T12:14:39;96301.31;;;14.82;35.00
35892;BME280;21993;42.672;23.296;2023-02-13T12:17:12;96296.13;;;14.70;35.16
35892;BME280;21993;42.672;23.296;2023-02-13T12:19:42;96304.06;;;14.81;34.83
35892;BME280;21993;42.672;23.296;2023-02-13T12:36:05;96284.59;;;15.25;34.29
35892;BME280;21993;42.672;23.296;2023-02-13T12:38:59;96282.09;;;15.12;34.09
35892;BME280;21993;42.672;23.296;2023-02-13T12:52:39;96262.28;;;14.63;34.59
35892;BME280;21993;42.672;23.296;2023-02-13T12:58:06;96265.72;;;14.08;34.90
35892;BME280;21993;42.672;23.296;2023-02-13T13:06:34;96264.94;;;13.72;35.64
35892;BME280;21993;42.672;23.296;2023-02-13T13:09:05;96250.97;;;13.48;36.17
35892;BME280;21993;42.672;23.296;2023-02-13T13:22:40;96246.25;;;13.16;37.19
35892;BME280;21993;42.672;23.296;2023-02-13T13:27:48;96235.41;;;13.21;36.89
35892;BME280;21993;42.672;23.296;2023-02-13T13:30:27;96242.28;;;13.11;37.11
35892;BME280;21993;42.672;23.296;2023-02-13T13:33:16;96233.47;;;12.75;38.44
35892;BME280;21993;42.672;23.296;2023-02-13T13:38:41;96234.56;;;12.36;38.32
35892;BME280;21993;42.672;23.296;2023-02-13T13:46:28;96230.16;;;12.24;38.16
35892;BME280;21993;42.672;23.296;2023-02-13T13:51:44;96238.19;;;11.84;39.65
35892;BME280;21993;42.672;23.296;2023-02-13T14:07:39;96234.06;;;11.15;41.27
35892;BME280;21993;42.672;23.296;2023-02-13T14:31:40;96208.09;;;10.43;42.29
35892;BME280;21993;42.672;23.296;2023-02-13T14:34:16;96208.69;;;10.34;42.53
35892;BME280;21993;42.672;23.296;2023-02-13T14:36:46;96200.22;;;10.43;42.60
35892;BME280;21993;42.672;23.296;2023-02-13T14:44:31;96216.53;;;10.06;43.12
35892;BME280;21993;42.672;23.296;2023-02-13T14:47:21;96204.16;;;10.08;43.38
35892;BME280;21993;42.672;23.296;2023-02-13T14:49:46;96214.03;;;9.90;43.66
35892;BME280;21993;42.672;23.296;2023-02-13T14:54:46;96200.63;;;9.95;43.87
35892;BME280;21993;42.672;23.296;2023-02-13T14:57:22;96207.19;;;9.87;43.92
35892;BME280;21993;42.672;23.296;2023-02-13T14:59:54;96197.66;;;9.86;44.35
35892;BME280;21993;42.672;23.296;2023-02-13T15:02:23;96199.13;;;9.91;43.55
35892;BME280;21993;42.672;23.296;2023-02-13T15:04:56;96203.81;;;9.85;44.49
35892;BME280;21993;42.672;23.296;2023-02-13T15:07:26;96206.56;;;9.84;44.27
35892;BME280;21993;42.672;23.296;2023-02-13T15:12:58;96209.34;;;9.67;43.88
35892;BME280;21993;42.672;23.296;2023-02-13T15:15:30;96202.41;;;9.51;43.88
35892;BME280;21993;42.672;23.296;2023-02-13T15:18:00;96205.09;;;9.50;44.18
35892;BME280;21993;42.672;23.296;2023-02-13T15:20:33;96197.34;;;9.34;44.91
35892;BME280;21993;42.672;23.296;2023-02-13T15:22:59;96203.59;;;9.31;45.12
35892;BME280;21993;42.672;23.296;2023-02-13T15:25:31;96212.75;;;9.24;44.95
35892;BME280;21993;42.672;23.296;2023-02-13T15:27:58;96210.66;;;9.15;45.06
35892;BME280;21993;42.672;23.296;2023-02-13T15:30:29;96214.16;;;9.30;45.31
35892;BME280;21993;42.672;23.296;2023-02-13T15:33:18;96214.34;;;9.27;44.66
35892;BME280;21993;42.672;23.296;2023-02-13T15:35:42;96207.25;;;9.29;45.00
35892;BME280;21993;42.672;23.296;2023-02-13T15:38:23;96203.88;;;9.27;45.48
35892;BME280;21993;42.672;23.296;2023-02-13T15:40:51;96213.03;;;9.20;44.51
35892;BME280;21993;42.672;23.296;2023-02-13T15:43:37;96213.97;;;9.19;45.71
35892;BME280;21993;42.672;23.296;2023-02-13T15:46:06;96220.31;;;9.15;45.35
35892;BME280;21993;42.672;23.296;2023-02-13T15:48:33;96230.31;;;9.08;45.06
35892;BME280;21993;42.672;23.296;2023-02-13T15:51:00;96228.59;;;9.07;45.74
35892;BME280;21993;42.672;23.296;2023-02-13T15:53:26;96217.06;;;8.95;45.40
35892;BME280;21993;42.672;23.296;2023-02-13T15:55:57;96231.75;;;8.98;45.51
35892;BME280;21993;42.672;23.296;2023-02-13T15:58:28;96228.41;;;8.80;46.17
35892;BME280;21993;42.672;23.296;2023-02-13T16:00:55;96229.69;;;8.73;46.14
35892;BME280;21993;42.672;23.296;2023-02-13T16:03:21;96238.81;;;8.66;46.14
35892;BME280;21993;42.672;23.296;2023-02-13T16:05:49;96227.88;;;8.59;46.93
35892;BME280;21993;42.672;23.296;2023-02-13T16:11:20;96223.06;;;8.52;46.66
35892;BME280;21993;42.672;23.296;2023-02-13T16:16:58;96233.72;;;8.15;48.00
35892;BME280;21993;42.672;23.296;2023-02-13T16:19:35;96238.06;;;8.16;47.23
35892;BME280;21993;42.672;23.296;2023-02-13T16:22:32;96239.75;;;8.17;47.81